Time;durP1;ratioP1;P1;durP2;ratioP2;P2;SDS_P1;SDS_P2;PMS_P1;PMS_P2;Temp;Humidity;BMP_temperature;BMP_pressure;BME280_temperature;BME280_humidity;BME280_pressure;Samples;Min_cycle;Max_cycle;Signal;HPM_P1;HPM_P2
2022/08/18 00:00:20;;;;;;;26.23;17.42;;;;;;;20.62;71.36;99855.96;2043337;86;33212;-70
2022/08/18 00:03:28;;;;;;;18.05;16.15;;;;;;;20.60;71.45;99847.09;2043404;86;27941;-71
2022/08/18 00:06:32;;;;;;;21.85;17.15;;;;;;;20.60;71.35;99851.69;2046553;86;27806;-72
2022/08/18 00:09:38;;;;;;;21.40;17.62;;;;;;;20.58;71.35;99848.27;2044796;86;28646;-71
2022/08/18 00:12:46;;;;;;;19.57;17.48;;;;;;;20.54;71.46;99847.72;2043560;86;31090;-71
2022/08/18 00:16:00;;;;;;;24.43;17.10;;;;;;;20.52;71.43;99854.33;2042996;86;33622;-69
2022/08/18 00:19:07;;;;;;;19.90;17.23;;;;;;;20.47;71.49;99857.00;2042937;86;29070;-66
2022/08/18 00:22:14;;;;;;;21.97;16.48;;;;;;;20.44;71.76;99859.14;2043774;86;27970;-68
2022/08/18 00:25:23;;;;;;;20.05;17.12;;;;;;;20.39;72.06;99848.72;2042861;86;29095;-70
2022/08/18 00:28:31;;;;;;;23.50;18.35;;;;;;;20.33;72.30;99839.82;2042773;86;31134;-71
2022/08/18 00:31:40;;;;;;;24.43;17.87;;;;;;;20.29;72.36;99843.84;2043347;86;32976;-70
2022/08/18 00:34:51;;;;;;;20.55;17.17;;;;;;;20.24;72.42;99840.22;2042857;86;29774;-71
2022/08/18 00:37:59;;;;;;;23.52;18.40;;;;;;;20.21;72.51;99839.16;2052147;86;27741;-76
2022/08/18 00:41:08;;;;;;;22.60;17.90;;;;;;;20.18;72.70;99841.69;2051612;86;28819;-73
2022/08/18 00:44:15;;;;;;;25.10;19.37;;;;;;;20.15;72.78;99856.94;2054497;86;31651;-66
2022/08/18 00:47:22;;;;;;;22.73;17.30;;;;;;;20.12;72.83;99859.08;2054207;86;33142;-74
2022/08/18 00:50:52;;;;;;;24.45;19.30;;;;;;;20.09;72.98;99860.76;2051435;86;29030;-74
2022/08/18 00:54:11;;;;;;;22.48;18.23;;;;;;;20.07;73.33;99862.77;2053948;86;27964;-80
2022/08/18 00:57:22;;;;;;;22.42;18.85;;;;;;;20.05;73.20;99854.73;2054265;86;28724;-73
2022/08/18 01:00:32;;;;;;;19.98;17.77;;;;;;;20.03;73.28;99849.95;2054037;86;31027;-72
2022/08/18 01:03:40;;;;;;;23.50;18.48;;;;;;;20.00;73.38;99843.47;2053594;86;33400;-76
2022/08/18 01:06:58;;;;;;;27.75;18.60;;;;;;;19.96;73.38;99839.33;2037318;86;28799;-77
2022/08/18 01:10:06;;;;;;;23.18;18.67;;;;;;;19.91;73.41;99834.34;2051188;86;27794;-79
2022/08/18 01:13:09;;;;;;;22.87;18.17;;;;;;;19.87;73.64;99830.20;2057020;86;28700;-71
2022/08/18 01:23:07;;;;;;;22.52;19.37;;;;;;;19.82;74.04;99816.16;2038225;86;29195;-77
2022/08/18 01:26:15;;;;;;;23.38;18.35;;;;;;;19.82;74.12;99824.31;2054186;86;27951;-71
2022/08/18 01:29:23;;;;;;;24.00;19.50;;;;;;;19.82;74.13;99825.67;2050794;86;29299;-78
2022/08/18 01:32:27;;;;;;;28.50;18.90;;;;;;;19.82;74.06;99827.03;2056916;86;31468;-71
2022/08/18 01:35:34;;;;;;;24.57;19.17;;;;;;;19.81;74.21;99823.47;2054302;86;33010;-79
2022/08/18 01:38:39;;;;;;;20.95;18.00;;;;;;;19.81;74.21;99823.95;2059941;86;29073;-68
2022/08/18 01:41:44;;;;;;;;;;;;;;;19.79;74.22;99821.40;2067753;85;27820;-72
2022/08/18 01:44:55;;;;;;;24.05;18.80;;;;;;;19.77;74.29;99821.20;2065912;85;28716;-66
2022/08/18 01:47:55;;;;;;;20.30;18.17;;;;;;;19.74;74.19;99820.48;2064161;85;31219;-69
2022/08/18 01:51:06;;;;;;;25.70;21.23;;;;;;;19.70;74.25;99816.34;2036729;85;35663;-69
2022/08/18 01:54:16;;;;;;;24.63;18.67;;;;;;;19.68;74.26;99825.66;2065722;85;29084;-68
2022/08/18 01:57:25;;;;;;;21.37;17.62;;;;;;;19.64;74.31;99826.44;2065696;85;27718;-68
2022/08/18 02:00:32;;;;;;;23.32;18.02;;;;;;;19.60;74.38;99827.75;2065264;85;27933;-70
2022/08/18 02:03:42;;;;;;;20.05;17.32;;;;;;;19.57;74.33;99826.69;2066209;85;31033;-73
2022/08/18 02:06:52;;;;;;;22.55;18.35;;;;;;;19.54;74.53;99820.17;2065780;85;33024;-65
2022/08/18 02:10:00;;;;;;;19.27;17.35;;;;;;;19.51;74.51;99825.89;2065828;84;27929;-75
2022/08/18 02:13:02;;;;;;;22.65;18.17;;;;;;;19.47;74.53;99827.19;2065871;85;27768;-67
2022/08/18 02:16:09;;;;;;;23.60;20.35;;;;;;;19.43;74.74;99831.58;2066859;85;28655;-68
2022/08/18 02:19:20;;;;;;;21.27;18.73;;;;;;;19.38;74.77;99827.07;2065699;85;31010;-69
2022/08/18 02:22:31;;;;;;;22.73;19.23;;;;;;;19.36;74.73;99833.14;2065381;86;33604;-71
2022/08/18 02:25:44;;;;;;;20.75;18.50;;;;;;;19.33;74.82;99836.66;2065541;85;27964;-72
2022/08/18 02:28:56;;;;;;;21.60;19.30;;;;;;;19.28;74.88;99839.78;2065496;85;27848;-70
2022/08/18 02:32:04;;;;;;;20.92;18.05;;;;;;;19.25;75.04;99839.58;2065220;85;43683;-66
2022/08/18 02:35:10;;;;;;;25.40;21.52;;;;;;;19.22;75.09;99828.16;2065820;85;31328;-73
2022/08/18 02:38:15;;;;;;;22.85;20.37;;;;;;;19.20;75.34;99822.02;2061673;85;33033;-68
2022/08/18 02:41:20;;;;;;;22.80;19.85;;;;;;;19.22;75.56;99826.80;2054077;86;29071;-73
2022/08/18 02:44:28;;;;;;;24.23;19.90;;;;;;;19.23;75.52;99821.73;2054302;86;27719;-68
2022/08/18 02:47:33;;;;;;;22.48;19.87;;;;;;;19.22;75.53;99814.58;2054104;86;28711;-70
2022/08/18 02:50:45;;;;;;;23.22;18.55;;;;;;;19.19;75.49;99815.73;2053941;86;31127;-68
2022/08/18 02:53:54;;;;;;;25.72;20.43;;;;;;;19.18;75.58;99817.22;2053924;86;30565;-70
2022/08/18 02:57:01;;;;;;;25.37;20.37;;;;;;;19.14;75.61;99822.09;2054194;86;29060;-66
2022/08/18 03:00:12;;;;;;;29.40;20.55;;;;;;;19.11;75.81;99811.00;2053975;86;27931;-69
2022/08/18 03:03:19;;;;;;;23.18;20.88;;;;;;;19.09;75.74;99814.38;2053692;86;27990;-67
2022/08/18 03:06:29;;;;;;;23.18;20.23;;;;;;;19.07;75.73;99822.30;2054271;86;31065;-65
2022/08/18 03:09:35;;;;;;;23.75;20.43;;;;;;;19.05;75.91;99826.52;2054128;86;33056;-65
2022/08/18 03:12:44;;;;;;;24.47;21.52;;;;;;;19.01;76.00;99816.94;2054149;86;29384;-69
2022/08/18 03:15:49;;;;;;;25.55;20.75;;;;;;;19.01;76.30;99825.59;2055112;86;27877;-67
2022/08/18 03:18:59;;;;;;;24.47;21.95;;;;;;;19.03;76.43;99829.03;2053985;86;29697;-71
2022/08/18 03:22:08;;;;;;;27.77;22.30;;;;;;;19.04;76.43;99828.00;2053741;86;31485;-71
2022/08/18 03:25:17;;;;;;;24.80;22.20;;;;;;;19.04;76.48;99820.73;2054128;86;32957;-67
2022/08/18 03:28:25;;;;;;;27.15;20.68;;;;;;;19.05;76.48;99818.37;2053781;86;29108;-67
2022/08/18 03:31:37;;;;;;;24.92;22.32;;;;;;;19.06;76.40;99820.58;2053969;86;27991;-69
2022/08/18 03:34:45;;;;;;;28.70;23.83;;;;;;;19.05;76.63;99821.09;2053984;86;28845;-71
2022/08/18 03:37:57;;;;;;;26.48;23.45;;;;;;;19.08;76.80;99813.15;2056615;85;31119;-70
2022/08/18 03:41:07;;;;;;;34.98;23.50;;;;;;;19.11;76.82;99818.30;2053856;86;33138;-68
2022/08/18 03:44:17;;;;;;;26.45;22.55;;;;;;;19.11;76.74;99823.21;2054075;86;29036;-72
2022/08/18 03:47:29;;;;;;;26.57;22.60;;;;;;;19.12;76.74;99830.36;2054134;86;27920;-67
2022/08/18 03:50:45;;;;;;;27.75;23.87;;;;;;;19.11;76.75;99832.72;2053934;86;28874;-72
2022/08/18 03:53:48;;;;;;;25.40;22.73;;;;;;;19.12;76.79;99834.95;2053868;86;31132;-67
2022/08/18 03:56:54;;;;;;;26.55;22.17;;;;;;;19.13;76.79;99849.73;2054243;86;32975;-71
2022/08/18 04:00:02;;;;;;;24.80;22.15;;;;;;;19.14;76.85;99841.09;2053856;85;27948;-67
2022/08/18 04:03:12;;;;;;;28.07;21.37;;;;;;;19.16;76.93;99852.68;2054346;86;27812;-67
2022/08/18 04:06:22;;;;;;;26.02;22.75;;;;;;;19.21;77.01;99858.52;2054345;86;28672;-70
2022/08/18 04:09:32;;;;;;;27.05;22.42;;;;;;;19.24;76.96;99863.66;2053885;86;32423;-70
2022/08/18 04:12:40;;;;;;;30.62;23.55;;;;;;;19.28;77.01;99856.08;2054240;86;32965;-67
2022/08/18 04:15:47;;;;;;;31.87;24.92;;;;;;;19.35;77.20;99853.67;2054104;86;28864;-68
2022/08/18 04:19:03;;;;;;;32.40;26.40;;;;;;;19.42;77.24;99853.44;2054429;86;27906;-69
2022/08/18 04:22:11;;;;;;;30.00;24.25;;;;;;;19.52;77.23;99858.86;2052951;86;29260;-69
2022/08/18 04:25:20;;;;;;;28.73;25.48;;;;;;;19.61;77.18;99857.97;2053833;86;28286;-70
2022/08/18 04:28:27;;;;;;;28.47;24.43;;;;;;;19.71;77.20;99868.34;2054648;86;33019;-67
2022/08/18 04:31:31;;;;;;;32.85;27.55;;;;;;;19.82;77.15;99867.31;2054238;86;29024;-66
2022/08/18 04:34:39;;;;;;;29.35;24.85;;;;;;;19.94;77.09;99864.45;2054333;86;27857;-68
2022/08/18 04:37:49;;;;;;;33.08;26.33;;;;;;;20.06;77.00;99860.53;2054004;86;27828;-68
2022/08/18 04:40:54;;;;;;;31.27;25.43;;;;;;;20.18;76.95;99853.05;2039418;85;31005;-67
2022/08/18 04:44:07;;;;;;;27.95;24.82;;;;;;;20.31;76.85;99858.16;2038827;86;33012;-68
2022/08/18 04:47:17;;;;;;;28.98;25.32;;;;;;;20.43;76.63;99850.14;2037886;87;27933;-67
2022/08/18 04:50:23;;;;;;;30.62;25.92;;;;;;;20.57;76.43;99852.86;2039065;86;27914;-68
2022/08/18 04:56:56;;;;;;;30.77;24.90;;;;;;;20.88;76.26;99862.08;2038602;87;31443;-68
2022/08/18 05:00:11;;;;;;;30.72;24.45;;;;;;;21.08;76.08;99861.94;2038636;87;33351;-67
2022/08/18 05:03:19;;;;;;;32.73;25.27;;;;;;;21.33;75.78;99872.55;2038573;87;33163;-69
2022/08/18 05:06:28;;;;;;;33.88;24.52;;;;;;;21.59;75.46;99871.73;2038139;86;27891;-69
2022/08/18 05:13:04;;;;;;;28.87;24.72;;;;;;;22.16;74.59;99863.09;2006881;88;31064;-70
2022/08/18 05:16:12;;;;;;;30.95;24.27;;;;;;;22.39;74.22;99862.52;2003251;87;29998;-70
2022/08/18 05:19:21;;;;;;;29.52;25.97;;;;;;;22.59;73.71;99863.14;1989174;89;29028;-70
2022/08/18 05:22:29;;;;;;;29.35;24.10;;;;;;;22.77;73.28;99856.70;1989014;89;27989;-71
2022/08/18 05:25:35;;;;;;;30.72;25.48;;;;;;;23.01;73.40;99858.63;1988901;89;28694;-68
2022/08/18 05:28:43;;;;;;;38.10;30.52;;;;;;;23.27;73.02;99863.64;2004557;88;31025;-67
2022/08/18 05:31:49;;;;;;;41.35;26.95;;;;;;;23.49;72.33;99858.00;1969553;90;33045;-74
2022/08/18 05:34:59;;;;;;;33.58;25.48;;;;;;;23.69;71.93;99864.48;2002969;88;29622;-66
2022/08/18 05:39:00;;;;;;;30.45;24.32;;;;;;;23.87;71.37;99867.88;1988661;89;27876;-71
2022/08/18 05:42:19;;;;;;;29.45;24.43;;;;;;;24.06;71.26;99870.77;1988431;89;29893;-71
2022/08/18 05:45:26;;;;;;;33.90;26.87;;;;;;;24.27;70.34;99871.55;2002725;88;31157;-66
2022/08/18 05:48:35;;;;;;;34.55;25.95;;;;;;;24.46;70.01;99871.33;1988944;89;33055;-66
2022/08/18 05:51:55;;;;;;;33.35;24.95;;;;;;;24.58;69.66;99869.90;2003480;88;29040;-70
2022/08/18 05:58:45;;;;;;;29.77;25.45;;;;;;;24.96;69.08;99878.79;2003495;88;28723;-69
2022/08/18 06:02:06;;;;;;;29.48;25.00;;;;;;;25.28;69.37;99882.34;1991801;89;28093;-73
2022/08/18 06:05:16;;;;;;;31.75;26.27;;;;;;;25.65;68.44;99894.95;2002960;88;34181;-73
2022/08/18 06:08:24;;;;;;;36.88;27.80;;;;;;;25.93;67.98;99886.44;1991832;89;30067;-77
2022/08/18 06:11:28;;;;;;;38.15;27.37;;;;;;;26.30;67.18;99882.47;1983034;88;27882;-73
2022/08/18 06:14:33;;;;;;;28.65;25.70;;;;;;;26.61;66.47;99882.77;1993705;89;28705;-74
2022/08/18 06:18:05;;;;;;;31.80;25.77;;;;;;;26.85;65.91;99884.89;1958929;89;31712;-74
2022/08/18 06:21:31;;;;;;;35.05;25.72;;;;;;;27.10;65.23;99877.14;1939407;91;33705;-73
2022/08/18 06:24:39;;;;;;;37.13;26.55;;;;;;;27.35;64.29;99875.90;1939520;90;29189;-78
2022/08/18 06:28:06;;;;;;;29.70;24.45;;;;;;;27.55;63.77;99870.60;1937831;91;27921;-72
2022/08/18 06:31:31;;;;;;;28.73;25.60;;;;;;;27.88;63.66;99866.72;1938225;91;28672;-75
2022/08/18 06:34:55;;;;;;;26.60;23.70;;;;;;;28.32;62.78;99868.83;1937740;91;31122;-71
2022/08/18 06:41:55;;;;;;;28.83;24.32;;;;;;;29.19;59.93;99870.25;1940714;91;29087;-77
2022/08/18 06:45:12;;;;;;;29.05;23.98;;;;;;;29.66;59.71;99867.53;1937857;91;28147;-75
2022/08/18 06:48:32;;;;;;;29.60;24.00;;;;;;;29.96;58.55;99869.36;1937727;91;29224;-72
2022/08/18 06:51:36;;;;;;;35.98;30.45;;;;;;;30.16;57.47;99870.69;1934750;89;31473;-75
2022/08/18 06:54:43;;;;;;;28.25;23.92;;;;;;;30.51;57.35;99873.69;1983184;89;33662;-72
2022/08/18 06:58:11;;;;;;;23.12;18.52;;;;;;;30.87;57.24;99875.57;1983056;89;28861;-69
2022/08/18 07:01:15;;;;;;;19.85;16.23;;;;;;;31.16;54.29;99880.22;1994509;89;28053;-74
2022/08/18 07:04:46;;;;;;;22.62;19.57;;;;;;;31.57;54.73;99880.77;1940225;89;28670;-73
2022/08/18 07:08:16;;;;;;;26.10;21.97;;;;;;;31.94;54.86;99886.45;2000906;88;31096;-80
2022/08/18 07:11:29;;;;;;;24.40;21.75;;;;;;;32.28;53.18;99882.83;2001456;87;32940;-73
2022/08/18 07:14:46;;;;;;;23.30;20.68;;;;;;;32.54;52.36;99880.29;1995827;88;29377;-73
2022/08/18 07:17:54;;;;;;;19.45;17.45;;;;;;;32.68;51.80;99879.56;1995621;88;27903;-78
2022/08/18 07:21:03;;;;;;;22.60;20.25;;;;;;;32.80;50.97;99867.70;1995623;88;28632;-79
2022/08/18 07:24:23;;;;;;;27.77;18.62;;;;;;;32.98;50.78;99869.08;1995320;88;31248;-76
2022/08/18 07:27:54;;;;;;;26.17;20.43;;;;;;;33.21;49.73;99869.39;1996523;87;33550;-79
2022/08/18 07:31:39;;;;;;;23.30;18.65;;;;;;;33.38;48.74;99866.27;1995491;88;27934;-73
2022/08/18 07:34:51;;;;;;;7.20;6.58;;;;;;;33.38;47.90;99863.49;1995692;88;28154;-80
2022/08/18 07:38:02;;;;;;;10.65;9.60;;;;;;;33.54;47.41;99861.11;1995636;88;28666;-76
2022/08/18 07:41:19;;;;;;;9.35;8.48;;;;;;;33.67;47.03;99859.48;1995684;88;31086;-77
2022/08/18 07:45:05;;;;;;;22.75;18.52;;;;;;;33.87;46.31;99856.34;1982215;88;30112;-74
2022/08/18 07:48:20;;;;;;;12.93;11.75;;;;;;;33.95;46.11;99861.27;1975547;89;29403;-73
2022/08/18 07:51:51;;;;;;;7.15;6.55;;;;;;;33.90;45.55;99856.45;1979546;89;27938;-74
2022/08/18 07:55:18;;;;;;;7.72;7.00;;;;;;;33.97;42.90;99858.55;1982452;89;28656;-78
2022/08/18 07:58:38;;;;;;;6.58;5.85;;;;;;;34.09;44.67;99859.93;1979136;88;32259;-77
2022/08/18 08:02:08;;;;;;;8.85;8.00;;;;;;;34.29;44.13;99868.44;1979138;89;33419;-75
2022/08/18 08:05:36;;;;;;;5.08;4.40;;;;;;;34.55;42.75;99872.64;1982179;88;29394;-69
2022/08/18 08:09:02;;;;;;;16.87;13.75;;;;;;;34.77;42.73;99874.20;1964847;90;28184;-78
2022/08/18 08:12:17;;;;;;;6.92;6.35;;;;;;;34.85;42.09;99877.14;1965908;89;28662;-77
2022/08/18 08:15:43;;;;;;;17.92;15.70;;;;;;;34.86;41.04;99877.44;1978636;89;31090;-74
2022/08/18 08:19:06;;;;;;;6.65;4.50;;;;;;;34.99;41.66;99877.16;1977996;89;33412;-72
2022/08/18 08:22:18;;;;;;;12.15;10.60;;;;;;;35.03;40.73;99871.94;1960634;90;29326;-72
2022/08/18 08:25:37;;;;;;;18.20;16.05;;;;;;;35.19;40.68;99877.78;1960698;90;28042;-73
2022/08/18 08:29:00;;;;;;;8.65;6.97;;;;;;;35.22;41.25;99879.55;1977579;89;29995;-73
2022/08/18 08:32:35;;;;;;;17.30;15.60;;;;;;;35.21;40.32;99882.03;1977623;87;28014;-73
2022/08/18 08:35:47;;;;;;;10.68;9.65;;;;;;;35.32;40.45;99890.03;1962655;90;33294;-79
2022/08/18 08:39:00;;;;;;;10.98;9.20;;;;;;;35.35;40.59;99892.84;1962660;90;29338;-80
2022/08/18 08:42:25;;;;;;;18.70;14.60;;;;;;;35.39;39.88;99886.52;1957377;90;28094;-78
2022/08/18 08:45:54;;;;;;;15.08;13.15;;;;;;;35.39;39.88;99891.27;1916711;91;28667;-74
2022/08/18 08:49:12;;;;;;;16.55;13.65;;;;;;;35.31;39.46;99896.70;1942105;90;31019;-71
2022/08/18 08:52:31;;;;;;;5.90;4.65;;;;;;;35.25;39.46;99897.69;1941109;91;31334;-77
2022/08/18 08:55:39;;;;;;;9.08;8.15;;;;;;;35.11;39.66;99892.43;1944173;91;29433;-73
2022/08/18 08:59:02;;;;;;;15.03;12.25;;;;;;;35.10;39.25;99894.05;1947176;90;27663;-72
2022/08/18 09:02:27;;;;;;;4.75;4.28;;;;;;;34.94;39.56;99893.76;1944017;91;28933;-72
2022/08/18 09:05:41;;;;;;;12.70;10.20;;;;;;;34.67;39.00;99890.14;1941715;91;31098;-73
2022/08/18 09:09:06;;;;;;;15.88;12.18;;;;;;;34.35;38.35;99884.98;1941872;91;33210;-75
2022/08/18 09:12:19;;;;;;;;;;;;;;;34.07;38.49;99885.73;1963587;89;29400;-72
2022/08/18 09:16:08;;;;;;;10.58;9.43;;;;;;;33.92;39.23;99887.07;1981991;88;36914;-72
2022/08/18 09:19:44;;;;;;;6.35;4.70;;;;;;;33.73;39.46;99877.98;1978373;89;27952;-77
2022/08/18 09:22:57;;;;;;;21.07;14.47;;;;;;;33.58;39.42;99866.48;1978530;89;27961;-75
2022/08/18 09:26:35;;;;;;;16.93;12.65;;;;;;;33.74;40.13;99878.81;1965783;89;33496;-69
2022/08/18 09:29:56;;;;;;;16.40;14.73;;;;;;;33.66;39.91;99874.45;1904958;92;29395;-78
2022/08/18 09:33:13;;;;;;;17.32;13.62;;;;;;;33.41;40.02;99879.69;1932058;91;27969;-69
2022/08/18 09:36:44;;;;;;;14.75;13.25;;;;;;;33.24;39.56;99868.92;1932106;91;27917;-71
2022/08/18 09:44:12;;;;;;;14.38;12.88;;;;;;;32.97;40.23;99862.36;1931317;91;33044;-70
2022/08/18 09:47:28;;;;;;;16.62;12.63;;;;;;;32.78;39.93;99865.14;1926699;91;29327;-71
2022/08/18 09:50:38;;;;;;;15.45;11.95;;;;;;;32.59;39.83;99861.56;1935247;91;28077;-78
2022/08/18 09:54:12;;;;;;;4.87;4.42;;;;;;;32.45;40.57;99861.42;1931769;91;28938;-75
2022/08/18 09:57:19;;;;;;;16.37;14.50;;;;;;;32.33;40.30;99845.57;1935419;91;31789;-77
2022/08/18 10:00:32;;;;;;;9.33;8.08;;;;;;;32.23;40.64;99847.46;1924048;90;33489;-73
2022/08/18 10:03:35;;;;;;;16.53;14.47;;;;;;;32.05;40.18;99839.97;1981253;89;29338;-72
2022/08/18 10:06:42;;;;;;;15.75;13.20;;;;;;;31.97;41.11;99835.58;1965502;90;27942;-70
2022/08/18 10:10:14;;;;;;;14.05;12.55;;;;;;;31.92;40.49;99826.27;1986758;89;28662;-70
2022/08/18 10:13:46;;;;;;;12.98;11.63;;;;;;;31.81;40.98;99816.78;1983142;88;31200;-76
2022/08/18 10:17:02;;;;;;;11.55;10.32;;;;;;;31.77;41.13;99815.56;1990096;89;33049;-73
2022/08/18 10:20:23;;;;;;;13.90;11.48;;;;;;;31.62;41.52;99813.11;2004534;87;30598;-72
2022/08/18 10:23:52;;;;;;;15.43;12.53;;;;;;;31.61;41.85;99805.88;1990269;88;27970;-71
2022/08/18 10:26:58;;;;;;;7.90;7.10;;;;;;;31.59;41.63;99789.50;1983761;89;28677;-73
2022/08/18 10:30:03;;;;;;;12.35;10.72;;;;;;;31.54;41.75;99782.41;1989342;88;31348;-75
2022/08/18 10:33:09;;;;;;;17.00;10.50;;;;;;;31.55;41.89;99780.47;1989595;89;32999;-74
2022/08/18 10:36:17;;;;;;;10.85;9.45;;;;;;;31.55;41.25;99781.85;1990392;89;29492;-72
2022/08/18 10:39:24;;;;;;;11.93;10.80;;;;;;;31.55;41.37;99781.85;1980236;89;27800;-71
2022/08/18 10:42:37;;;;;;;12.58;10.90;;;;;;;31.56;41.30;99772.47;1964185;89;28724;-74
2022/08/18 10:45:48;;;;;;;12.23;10.80;;;;;;;31.58;41.08;99775.86;1989884;89;31701;-74
2022/08/18 10:49:13;;;;;;;13.20;8.45;;;;;;;31.56;39.89;99775.23;1983938;89;33128;-72
2022/08/18 10:52:40;;;;;;;13.83;11.18;;;;;;;31.50;40.14;99775.62;1980408;89;29405;-74
2022/08/18 10:56:03;;;;;;;14.20;10.72;;;;;;;31.44;40.84;99780.15;1985672;89;27835;-67
2022/08/18 10:59:27;;;;;;;10.50;9.40;;;;;;;31.46;40.88;99782.16;1983934;87;28670;-70
2022/08/18 11:02:45;;;;;;;11.03;10.00;;;;;;;31.33;40.05;99774.81;1985123;89;31077;-70
2022/08/18 11:05:48;;;;;;;11.25;8.83;;;;;;;31.34;40.18;99775.13;1989410;89;33689;-73
2022/08/18 11:08:57;;;;;;;8.35;6.55;;;;;;;31.28;40.31;99772.41;1989866;89;29349;-76
2022/08/18 11:12:03;;;;;;;9.30;8.08;;;;;;;31.18;40.19;99756.31;1990017;88;27634;-78
2022/08/18 11:15:21;;;;;;;12.13;10.45;;;;;;;31.06;40.06;99759.79;1918298;91;28825;-74
2022/08/18 11:18:36;;;;;;;7.40;6.00;;;;;;;30.98;40.91;99767.52;1921459;92;31233;-74
2022/08/18 11:21:47;;;;;;;8.73;7.87;;;;;;;30.98;40.95;99761.98;1929513;92;33060;-71
2022/08/18 11:24:50;;;;;;;7.70;6.35;;;;;;;30.95;40.87;99761.88;1931882;92;29328;-77
2022/08/18 11:27:56;;;;;;;12.68;10.70;;;;;;;30.95;41.22;99763.81;1932079;91;27867;-73
2022/08/18 11:30:59;;;;;;;13.00;8.80;;;;;;;30.92;41.04;99764.56;1921037;92;28627;-73
2022/08/18 11:34:01;;;;;;;10.60;9.38;;;;;;;30.97;40.50;99765.82;1931526;91;31039;-73
2022/08/18 11:37:08;;;;;;;12.95;10.48;;;;;;;30.92;40.70;99761.80;1931713;92;32997;-70
2022/08/18 11:40:23;;;;;;;12.28;8.58;;;;;;;30.93;40.99;99765.43;1931376;90;29411;-73
2022/08/18 11:43:32;;;;;;;4.78;4.37;;;;;;;30.98;40.52;99755.91;1931455;91;27937;-73
2022/08/18 11:46:39;;;;;;;12.03;9.55;;;;;;;30.98;40.40;99752.30;1931336;91;28689;-75
2022/08/18 11:49:50;;;;;;;12.25;11.05;;;;;;;30.94;40.21;99753.30;1928622;91;31087;-68
2022/08/18 11:52:52;;;;;;;13.68;11.88;;;;;;;31.01;39.69;99747.71;1931497;91;33785;-73
2022/08/18 11:56:17;;;;;;;11.00;9.38;;;;;;;31.09;39.86;99747.97;1931557;91;29358;-74
2022/08/18 11:59:35;;;;;;;5.28;4.87;;;;;;;31.04;39.47;99745.33;1931883;92;27768;-73
2022/08/18 12:02:38;;;;;;;7.87;6.80;;;;;;;30.94;39.62;99740.85;1931884;92;28693;-75
2022/08/18 12:05:46;;;;;;;18.12;12.35;;;;;;;30.87;39.95;99740.88;1931553;91;31703;-73
2022/08/18 12:09:05;;;;;;;8.98;7.78;;;;;;;30.85;40.57;99749.09;1928456;91;32984;-72
2022/08/18 12:12:24;;;;;;;6.10;5.50;;;;;;;30.86;40.64;99744.70;1931552;92;29396;-71
2022/08/18 12:15:33;;;;;;;11.25;9.53;;;;;;;30.92;40.22;99741.61;1929255;92;28107;-69
2022/08/18 12:18:35;;;;;;;8.68;7.87;;;;;;;30.96;39.91;99738.67;1931682;90;28722;-73
2022/08/18 12:21:44;;;;;;;12.03;10.60;;;;;;;30.97;40.12;99732.08;1988002;88;31007;-74
2022/08/18 12:24:46;;;;;;;11.22;10.00;;;;;;;30.99;39.53;99731.31;1931898;92;32972;-76
2022/08/18 12:27:49;;;;;;;11.33;10.25;;;;;;;30.96;39.84;99737.84;1987961;88;29394;-75
2022/08/18 12:30:51;;;;;;;5.37;4.97;;;;;;;30.91;39.58;99730.23;1931659;90;27916;-73
2022/08/18 12:33:53;;;;;;;12.37;11.08;;;;;;;30.80;39.25;99726.78;1987939;89;28649;-72
2022/08/18 12:36:59;;;;;;;10.60;9.50;;;;;;;30.81;39.31;99726.58;1931583;92;30876;-73
2022/08/18 12:40:03;;;;;;;10.93;9.70;;;;;;;30.94;38.61;99731.69;1988076;88;33121;-74
2022/08/18 12:43:05;;;;;;;8.28;7.47;;;;;;;30.91;38.58;99742.67;1932036;92;29380;-75
2022/08/18 12:46:07;;;;;;;9.50;8.70;;;;;;;30.83;38.97;99734.63;1988237;89;27848;-75
2022/08/18 12:49:19;;;;;;;4.40;4.10;;;;;;;30.78;38.78;99742.23;1921518;91;29677;-75
2022/08/18 12:52:22;;;;;;;5.70;5.20;;;;;;;30.74;39.27;99743.73;1988188;89;31025;-75
2022/08/18 12:55:24;;;;;;;11.90;9.50;;;;;;;30.64;39.01;99745.61;1931930;92;32993;-74
2022/08/18 12:58:27;;;;;;;8.80;7.33;;;;;;;30.59;39.64;99746.83;1988194;89;29365;-76
2022/08/18 13:01:29;;;;;;;15.45;11.30;;;;;;;30.62;39.95;99746.36;1932188;92;27877;-74
2022/08/18 13:04:31;;;;;;;5.35;4.87;;;;;;;30.68;38.94;99741.33;1988179;88;28792;-73
2022/08/18 13:07:33;;;;;;;12.13;11.00;;;;;;;30.70;39.42;99748.02;1931983;92;31035;-74
2022/08/18 13:10:40;;;;;;;12.43;11.28;;;;;;;30.71;39.42;99746.94;1985417;88;33579;-68
2022/08/18 13:13:44;;;;;;;11.50;10.43;;;;;;;30.86;39.05;99742.49;1945522;89;29393;-76
2022/08/18 13:16:46;;;;;;;16.00;11.90;;;;;;;31.04;39.31;99739.80;1990435;88;27769;-71
2022/08/18 13:19:48;;;;;;;5.50;5.08;;;;;;;30.98;39.40;99736.53;1983934;89;28817;-74
2022/08/18 13:22:50;;;;;;;12.70;11.50;;;;;;;31.00;39.53;99734.95;1989633;89;31016;-78
2022/08/18 13:25:56;;;;;;;8.50;7.80;;;;;;;30.91;39.17;99724.14;1987873;88;32953;-71
2022/08/18 13:29:03;;;;;;;7.95;6.53;;;;;;;30.90;39.44;99718.85;1984046;89;29342;-78
2022/08/18 13:32:08;;;;;;;4.83;3.80;;;;;;;30.83;39.49;99716.14;1959002;89;27695;-73
2022/08/18 13:35:11;;;;;;;5.53;5.12;;;;;;;30.73;39.57;99712.48;1959480;89;28706;-74
2022/08/18 13:38:18;;;;;;;12.05;10.72;;;;;;;30.67;39.86;99706.45;1980980;89;31039;-74
2022/08/18 13:41:24;;;;;;;10.25;9.30;;;;;;;30.69;39.65;99717.31;1986875;89;33770;-70
2022/08/18 13:44:27;;;;;;;10.58;9.50;;;;;;;30.74;39.35;99713.32;1984222;89;29349;-75
2022/08/18 13:47:30;;;;;;;11.33;9.25;;;;;;;30.87;38.49;99703.53;1959633;89;27883;-73
2022/08/18 13:50:32;;;;;;;4.15;3.75;;;;;;;31.03;38.72;99703.52;1990199;89;28671;-73
2022/08/18 13:53:38;;;;;;;6.60;5.58;;;;;;;31.07;38.98;99704.77;1989799;89;31100;-70
2022/08/18 13:56:40;;;;;;;4.87;4.40;;;;;;;31.09;38.86;99714.22;1990141;88;32941;-76
2022/08/18 13:59:42;;;;;;;5.92;5.42;;;;;;;31.01;38.94;99711.20;1965093;89;29463;-74
2022/08/18 14:02:49;;;;;;;3.77;3.47;;;;;;;30.94;38.91;99704.89;1986759;89;27988;-70
2022/08/18 14:05:53;;;;;;;7.87;6.12;;;;;;;30.83;38.95;99695.91;1990036;89;28675;-75
2022/08/18 14:08:55;;;;;;;5.45;4.92;;;;;;;30.75;39.11;99695.14;1985913;89;31053;-75
2022/08/18 14:11:58;;;;;;;7.90;7.12;;;;;;;30.69;39.18;99693.26;1990151;89;33598;-74
2022/08/18 14:15:00;;;;;;;4.90;4.50;;;;;;;30.68;38.84;99697.09;1989979;89;29330;-76
2022/08/18 14:18:03;;;;;;;4.47;4.17;;;;;;;30.68;39.20;99689.34;1990197;89;27919;-75
2022/08/18 14:27:58;;;;;;;11.50;8.40;;;;;;;30.85;38.74;99657.82;1969813;89;30010;-73
2022/08/18 14:31:05;;;;;;;8.85;7.95;;;;;;;31.00;38.73;99668.55;1986986;89;29735;-72
2022/08/18 14:34:11;;;;;;;11.10;8.63;;;;;;;31.06;37.86;99651.89;1987444;89;27902;-74
2022/08/18 14:37:18;;;;;;;9.43;8.40;;;;;;;31.17;37.89;99639.27;1987275;89;28659;-76
2022/08/18 14:40:21;;;;;;;9.05;8.23;;;;;;;31.29;37.62;99638.50;1989730;89;31089;-76
2022/08/18 14:43:25;;;;;;;5.45;4.97;;;;;;;31.31;37.74;99634.97;1987494;89;32958;-75
2022/08/18 14:46:28;;;;;;;11.63;8.60;;;;;;;31.34;37.91;99646.41;1965017;89;29338;-75
2022/08/18 14:49:30;;;;;;;12.28;8.15;;;;;;;31.39;37.66;99645.72;1965281;89;27961;-75
2022/08/18 14:52:39;;;;;;;8.05;7.35;;;;;;;31.45;37.77;99634.26;1987011;88;27406;-74
2022/08/18 14:55:42;;;;;;;6.28;5.47;;;;;;;31.50;37.56;99635.80;1983560;89;31122;-69
2022/08/18 14:58:44;;;;;;;3.22;2.92;;;;;;;31.51;37.57;99639.75;1989904;89;32990;-71
2022/08/18 15:01:45;;;;;;;10.20;7.58;;;;;;;31.48;37.57;99633.80;1989959;89;29366;-74
2022/08/18 15:04:47;;;;;;;14.75;7.10;;;;;;;31.42;37.51;99641.67;1989941;89;27646;-75
2022/08/18 15:07:49;;;;;;;11.18;7.55;;;;;;;31.41;37.34;99640.80;1989691;89;28546;-75
2022/08/18 15:10:52;;;;;;;6.20;5.60;;;;;;;31.33;37.50;99645.27;1989879;89;31197;-74
2022/08/18 15:13:55;;;;;;;6.25;5.72;;;;;;;31.33;37.61;99641.95;1988286;88;33556;-75
2022/08/18 15:16:58;;;;;;;8.83;7.37;;;;;;;31.25;37.65;99649.71;1975691;90;29419;-76